Country
Station

 

Weather  for  Dutch Harbor  -  United States    United States

  
6 °C (43 °F)
    
 
 

Current METAR for Dutch Harbor is :

PADU 221256Z AUTO 15013G22KT 10SM -RA SCT037 BKN085 BKN120 06/00 A3001 RMK AO2 RAE26B49 SLP167 P0000 T00560000

 

This is a report for Dutch Harbor - United States.
 
The report was made 2 hours and 47 minutes ago, at 12:56 UTC .
The wind was blowing at a speed of 6.7 meters per second (15.0 miles per hour) with gusts up to 11.3 meters per second (25.3 miles per hour) from south/southeast (150°).
 
The temperature was 6 °C (43 °F)
The atmospheric pressure was 1016 hPa (30.01 inHg).
There were scattered clouds at a height of 1128 meters (3700 feet), broken clouds at a height of 2591 meters (8500 feet) and broken clouds at a height of 3658 meters (12000 feet).
 
The overall visibility was 16.1 kilometers (10.0 miles).
 
Currently light rain.

 
 
 
 

Country :   A   B   C   D   E   F   G   H   I   J   K   L   M   N   O   P   Q   R   S   T   U   V   W   Y   Z

 

Site Info  |  Disclaimer  |  Credits  |  Privacy
Contact us  |  Add to favorites
© 2013-2017 METARs - All rights reserved